Decoded Metar for UDSG (SHIRAK in ARMENIA) (IATA:N/A) | Meteo·Mobile Aviation Weather
aviador You're here:

UDSG Decoded Metar

SHIRAK in ARMENIA
Report Time2019-04-21 00:00:00
UTC Time2019-04-21 00:34:25
Flight Rules vfr VFR
Wind090° at 04 kt
W.Decomp.*RWY 02: 1.6 kt HW 3.7 kt RCW
Visibility9999 m
Phenomena:N/A
Clouds:Scattered CB 043 Hf
Expected CloudBase > 2,000 ft AGL from Temp-Dew spread
CeilingNone
Temp02°C (ISA -3)
Dew Point-3°C (70% RH)
AAT-1.8°C
QNH1012 hPa
Density Alt4,744 ft
Elevation5,000 ft
Report Wrong Elevation
Raw Report
METAR UDSG 210000Z 09004KT 9999 SCT043CB 02/M03 Q1012 R02/CLRD70
NOSIG=

Extra information for UDSG:More info

Metar Taf Metar & Taf Last 4 Metars F.Rules Stats Wind Profile Meteogram Temp Stats Airport Information Weather charts Add Link Nearby VenuesMetar ALERT Operation Metar Decoded Social comments